sensor_id;sensor_type;location;lat;lon;timestamp;P1;durP1;ratioP1;P2;durP2;ratioP2
19621;SDS011;9958;33.196;-97.114;2023-11-19T00:01:02;4.97;;;2.60;;
19621;SDS011;9958;33.196;-97.114;2023-11-19T00:03:31;3.38;;;2.45;;
19621;SDS011;9958;33.196;-97.114;2023-11-19T00:06:00;4.13;;;3.13;;
19621;SDS011;9958;33.196;-97.114;2023-11-19T00:08:30;4.93;;;3.00;;
19621;SDS011;9958;33.196;-97.114;2023-11-19T00:10:59;4.70;;;2.60;;
19621;SDS011;9958;33.196;-97.114;2023-11-19T00:13:28;3.20;;;2.85;;
19621;SDS011;9958;33.196;-97.114;2023-11-19T00:15:57;7.57;;;6.57;;
19621;SDS011;9958;33.196;-97.114;2023-11-19T00:18:27;8.43;;;6.85;;
19621;SDS011;9958;33.196;-97.114;2023-11-19T00:20:55;10.55;;;8.82;;
19621;SDS011;9958;33.196;-97.114;2023-11-19T00:23:23;8.43;;;7.50;;
19621;SDS011;9958;33.196;-97.114;2023-11-19T00:25:52;6.35;;;5.65;;
19621;SDS011;9958;33.196;-97.114;2023-11-19T00:28:20;4.82;;;4.43;;
19621;SDS011;9958;33.196;-97.114;2023-11-19T00:30:49;7.72;;;3.60;;
19621;SDS011;9958;33.196;-97.114;2023-11-19T00:33:18;8.45;;;3.60;;
19621;SDS011;9958;33.196;-97.114;2023-11-19T00:35:48;4.43;;;3.50;;
19621;SDS011;9958;33.196;-97.114;2023-11-19T00:38:16;3.60;;;3.10;;
19621;SDS011;9958;33.196;-97.114;2023-11-19T00:40:45;3.95;;;3.15;;
19621;SDS011;9958;33.196;-97.114;2023-11-19T00:43:13;4.22;;;3.50;;
19621;SDS011;9958;33.196;-97.114;2023-11-19T00:45:42;5.05;;;3.72;;
19621;SDS011;9958;33.196;-97.114;2023-11-19T00:48:11;9.38;;;5.50;;
19621;SDS011;9958;33.196;-97.114;2023-11-19T00:50:39;19.45;;;8.38;;
19621;SDS011;9958;33.196;-97.114;2023-11-19T00:53:12;25.10;;;10.18;;
19621;SDS011;9958;33.196;-97.114;2023-11-19T00:55:40;24.70;;;10.95;;
19621;SDS011;9958;33.196;-97.114;2023-11-19T00:58:08;29.98;;;11.25;;
19621;SDS011;9958;33.196;-97.114;2023-11-19T01:00:37;20.48;;;9.68;;
19621;SDS011;9958;33.196;-97.114;2023-11-19T01:03:05;17.17;;;8.20;;
19621;SDS011;9958;33.196;-97.114;2023-11-19T01:05:34;10.82;;;6.20;;
19621;SDS011;9958;33.196;-97.114;2023-11-19T01:08:02;11.98;;;5.82;;
19621;SDS011;9958;33.196;-97.114;2023-11-19T01:10:33;5.93;;;4.13;;
19621;SDS011;9958;33.196;-97.114;2023-11-19T01:13:03;5.75;;;3.53;;
19621;SDS011;9958;33.196;-97.114;2023-11-19T01:15:32;4.82;;;3.70;;
19621;SDS011;9958;33.196;-97.114;2023-11-19T01:18:00;5.28;;;3.92;;
19621;SDS011;9958;33.196;-97.114;2023-11-19T01:20:30;6.13;;;3.53;;
19621;SDS011;9958;33.196;-97.114;2023-11-19T01:22:59;4.53;;;3.28;;
19621;SDS011;9958;33.196;-97.114;2023-11-19T01:25:28;3.80;;;3.35;;
19621;SDS011;9958;33.196;-97.114;2023-11-19T01:27:58;6.20;;;4.03;;
19621;SDS011;9958;33.196;-97.114;2023-11-19T01:30:28;4.53;;;3.42;;
19621;SDS011;9958;33.196;-97.114;2023-11-19T01:32:56;4.57;;;3.63;;
19621;SDS011;9958;33.196;-97.114;2023-11-19T01:35:24;4.10;;;3.47;;
19621;SDS011;9958;33.196;-97.114;2023-11-19T01:37:53;8.40;;;4.10;;
19621;SDS011;9958;33.196;-97.114;2023-11-19T01:40:21;8.10;;;3.83;;
19621;SDS011;9958;33.196;-97.114;2023-11-19T01:42:49;5.80;;;3.55;;
19621;SDS011;9958;33.196;-97.114;2023-11-19T01:45:26;5.13;;;3.60;;
19621;SDS011;9958;33.196;-97.114;2023-11-19T01:47:56;6.85;;;3.45;;
19621;SDS011;9958;33.196;-97.114;2023-11-19T01:50:25;5.85;;;3.28;;
19621;SDS011;9958;33.196;-97.114;2023-11-19T01:52:55;7.32;;;3.40;;
19621;SDS011;9958;33.196;-97.114;2023-11-19T01:55:24;6.88;;;4.18;;
19621;SDS011;9958;33.196;-97.114;2023-11-19T01:57:55;5.00;;;3.72;;
19621;SDS011;9958;33.196;-97.114;2023-11-19T02:00:29;5.05;;;3.47;;
19621;SDS011;9958;33.196;-97.114;2023-11-19T02:03:00;4.20;;;3.60;;
19621;SDS011;9958;33.196;-97.114;2023-11-19T02:05:29;5.78;;;3.50;;
19621;SDS011;9958;33.196;-97.114;2023-11-19T02:07:58;6.72;;;3.83;;
19621;SDS011;9958;33.196;-97.114;2023-11-19T02:10:26;6.45;;;3.78;;
19621;SDS011;9958;33.196;-97.114;2023-11-19T02:12:54;6.90;;;3.80;;
19621;SDS011;9958;33.196;-97.114;2023-11-19T02:15:23;7.50;;;3.85;;
19621;SDS011;9958;33.196;-97.114;2023-11-19T02:17:53;5.35;;;3.67;;
19621;SDS011;9958;33.196;-97.114;2023-11-19T02:20:21;5.55;;;3.97;;
19621;SDS011;9958;33.196;-97.114;2023-11-19T02:22:51;4.05;;;3.33;;
19621;SDS011;9958;33.196;-97.114;2023-11-19T02:25:22;6.05;;;3.92;;
19621;SDS011;9958;33.196;-97.114;2023-11-19T02:28:01;5.13;;;3.95;;
19621;SDS011;9958;33.196;-97.114;2023-11-19T02:30:30;8.35;;;3.50;;
19621;SDS011;9958;33.196;-97.114;2023-11-19T02:32:59;6.60;;;3.33;;
19621;SDS011;9958;33.196;-97.114;2023-11-19T02:35:31;6.25;;;3.15;;
19621;SDS011;9958;33.196;-97.114;2023-11-19T02:37:59;4.38;;;2.90;;
19621;SDS011;9958;33.196;-97.114;2023-11-19T02:40:29;4.40;;;3.70;;
19621;SDS011;9958;33.196;-97.114;2023-11-19T02:42:57;5.95;;;3.47;;
19621;SDS011;9958;33.196;-97.114;2023-11-19T02:45:27;6.07;;;3.65;;
19621;SDS011;9958;33.196;-97.114;2023-11-19T02:47:56;7.30;;;3.97;;
19621;SDS011;9958;33.196;-97.114;2023-11-19T02:50:27;5.25;;;3.83;;
19621;SDS011;9958;33.196;-97.114;2023-11-19T02:52:56;4.68;;;3.78;;
19621;SDS011;9958;33.196;-97.114;2023-11-19T02:55:25;5.88;;;3.60;;
19621;SDS011;9958;33.196;-97.114;2023-11-19T02:57:56;6.40;;;3.90;;
19621;SDS011;9958;33.196;-97.114;2023-11-19T03:00:25;8.85;;;3.65;;
19621;SDS011;9958;33.196;-97.114;2023-11-19T03:03:01;5.55;;;4.25;;
19621;SDS011;9958;33.196;-97.114;2023-11-19T03:05:43;5.40;;;4.10;;
19621;SDS011;9958;33.196;-97.114;2023-11-19T03:08:12;6.15;;;4.43;;
19621;SDS011;9958;33.196;-97.114;2023-11-19T03:10:40;5.15;;;4.13;;
19621;SDS011;9958;33.196;-97.114;2023-11-19T03:13:10;6.88;;;4.65;;
19621;SDS011;9958;33.196;-97.114;2023-11-19T03:15:41;4.97;;;4.20;;
19621;SDS011;9958;33.196;-97.114;2023-11-19T03:18:10;7.53;;;4.70;;
19621;SDS011;9958;33.196;-97.114;2023-11-19T03:20:38;6.93;;;4.07;;
19621;SDS011;9958;33.196;-97.114;2023-11-19T03:23:07;9.07;;;4.43;;
19621;SDS011;9958;33.196;-97.114;2023-11-19T03:25:35;7.68;;;4.75;;
19621;SDS011;9958;33.196;-97.114;2023-11-19T03:28:04;5.25;;;4.32;;
19621;SDS011;9958;33.196;-97.114;2023-11-19T03:30:32;8.57;;;5.63;;
19621;SDS011;9958;33.196;-97.114;2023-11-19T03:33:02;7.13;;;5.05;;
19621;SDS011;9958;33.196;-97.114;2023-11-19T03:35:30;6.05;;;4.28;;
19621;SDS011;9958;33.196;-97.114;2023-11-19T03:37:59;8.50;;;5.20;;
19621;SDS011;9958;33.196;-97.114;2023-11-19T03:40:28;7.32;;;5.22;;
19621;SDS011;9958;33.196;-97.114;2023-11-19T03:42:56;7.03;;;4.78;;
19621;SDS011;9958;33.196;-97.114;2023-11-19T03:45:25;9.57;;;4.57;;
19621;SDS011;9958;33.196;-97.114;2023-11-19T03:47:53;4.90;;;4.40;;
19621;SDS011;9958;33.196;-97.114;2023-11-19T03:50:23;6.68;;;4.53;;
19621;SDS011;9958;33.196;-97.114;2023-11-19T03:52:51;8.88;;;5.18;;
19621;SDS011;9958;33.196;-97.114;2023-11-19T03:55:20;6.43;;;4.63;;
19621;SDS011;9958;33.196;-97.114;2023-11-19T03:57:48;6.47;;;4.65;;
19621;SDS011;9958;33.196;-97.114;2023-11-19T04:00:16;8.00;;;4.53;;
19621;SDS011;9958;33.196;-97.114;2023-11-19T04:02:46;6.93;;;4.95;;
19621;SDS011;9958;33.196;-97.114;2023-11-19T04:05:14;6.68;;;4.90;;
19621;SDS011;9958;33.196;-97.114;2023-11-19T04:07:45;6.63;;;4.65;;
19621;SDS011;9958;33.196;-97.114;2023-11-19T04:10:14;7.90;;;4.85;;
19621;SDS011;9958;33.196;-97.114;2023-11-19T04:12:44;11.50;;;5.15;;
19621;SDS011;9958;33.196;-97.114;2023-11-19T04:15:12;5.45;;;4.53;;
19621;SDS011;9958;33.196;-97.114;2023-11-19T04:17:41;7.70;;;5.25;;
19621;SDS011;9958;33.196;-97.114;2023-11-19T04:20:10;9.55;;;5.45;;
19621;SDS011;9958;33.196;-97.114;2023-11-19T04:22:39;6.25;;;4.95;;
19621;SDS011;9958;33.196;-97.114;2023-11-19T04:25:09;7.50;;;4.78;;
19621;SDS011;9958;33.196;-97.114;2023-11-19T04:27:38;6.97;;;4.93;;
19621;SDS011;9958;33.196;-97.114;2023-11-19T04:30:06;6.15;;;4.93;;
19621;SDS011;9958;33.196;-97.114;2023-11-19T04:32:36;7.53;;;5.07;;
19621;SDS011;9958;33.196;-97.114;2023-11-19T04:35:05;8.55;;;5.28;;
19621;SDS011;9958;33.196;-97.114;2023-11-19T04:37:34;8.38;;;5.68;;
19621;SDS011;9958;33.196;-97.114;2023-11-19T04:40:03;8.68;;;5.53;;
19621;SDS011;9958;33.196;-97.114;2023-11-19T04:42:34;9.25;;;5.97;;
19621;SDS011;9958;33.196;-97.114;2023-11-19T04:45:02;9.00;;;5.38;;
19621;SDS011;9958;33.196;-97.114;2023-11-19T04:47:32;7.93;;;5.40;;
19621;SDS011;9958;33.196;-97.114;2023-11-19T04:50:01;6.88;;;5.43;;
19621;SDS011;9958;33.196;-97.114;2023-11-19T04:52:30;7.55;;;5.95;;
19621;SDS011;9958;33.196;-97.114;2023-11-19T04:54:58;8.77;;;5.65;;
19621;SDS011;9958;33.196;-97.114;2023-11-19T04:57:26;9.95;;;5.80;;
19621;SDS011;9958;33.196;-97.114;2023-11-19T04:59:56;9.68;;;5.80;;
19621;SDS011;9958;33.196;-97.114;2023-11-19T05:02:24;11.55;;;5.88;;
19621;SDS011;9958;33.196;-97.114;2023-11-19T05:04:53;6.95;;;5.32;;
19621;SDS011;9958;33.196;-97.114;2023-11-19T05:07:21;11.40;;;5.72;;
19621;SDS011;9958;33.196;-97.114;2023-11-19T05:09:49;7.32;;;5.35;;
19621;SDS011;9958;33.196;-97.114;2023-11-19T05:12:18;11.30;;;6.20;;
19621;SDS011;9958;33.196;-97.114;2023-11-19T05:14:46;7.68;;;5.63;;
19621;SDS011;9958;33.196;-97.114;2023-11-19T05:17:16;10.18;;;6.10;;
19621;SDS011;9958;33.196;-97.114;2023-11-19T05:19:45;12.48;;;5.28;;
19621;SDS011;9958;33.196;-97.114;2023-11-19T05:22:13;9.70;;;6.10;;
19621;SDS011;9958;33.196;-97.114;2023-11-19T05:24:42;9.18;;;6.00;;
19621;SDS011;9958;33.196;-97.114;2023-11-19T05:27:10;9.95;;;5.63;;
19621;SDS011;9958;33.196;-97.114;2023-11-19T05:29:39;11.95;;;7.30;;
19621;SDS011;9958;33.196;-97.114;2023-11-19T05:32:08;9.25;;;5.93;;
19621;SDS011;9958;33.196;-97.114;2023-11-19T05:34:38;10.27;;;6.75;;
19621;SDS011;9958;33.196;-97.114;2023-11-19T05:37:07;11.27;;;6.75;;
19621;SDS011;9958;33.196;-97.114;2023-11-19T05:39:36;13.90;;;6.38;;
19621;SDS011;9958;33.196;-97.114;2023-11-19T05:42:04;11.80;;;6.93;;
19621;SDS011;9958;33.196;-97.114;2023-11-19T05:44:33;12.10;;;7.00;;
19621;SDS011;9958;33.196;-97.114;2023-11-19T05:47:02;7.90;;;6.03;;
19621;SDS011;9958;33.196;-97.114;2023-11-19T05:49:30;14.00;;;6.85;;
19621;SDS011;9958;33.196;-97.114;2023-11-19T05:52:00;11.60;;;6.90;;
19621;SDS011;9958;33.196;-97.114;2023-11-19T05:54:29;9.60;;;7.47;;
19621;SDS011;9958;33.196;-97.114;2023-11-19T05:56:59;10.30;;;7.45;;
19621;SDS011;9958;33.196;-97.114;2023-11-19T05:59:27;9.00;;;6.97;;
19621;SDS011;9958;33.196;-97.114;2023-11-19T06:01:57;9.77;;;6.80;;
19621;SDS011;9958;33.196;-97.114;2023-11-19T06:04:25;12.57;;;7.38;;
19621;SDS011;9958;33.196;-97.114;2023-11-19T06:06:54;11.75;;;8.23;;
19621;SDS011;9958;33.196;-97.114;2023-11-19T06:09:24;11.45;;;6.82;;
19621;SDS011;9958;33.196;-97.114;2023-11-19T06:11:52;10.25;;;7.43;;
19621;SDS011;9958;33.196;-97.114;2023-11-19T06:14:22;12.27;;;7.32;;
19621;SDS011;9958;33.196;-97.114;2023-11-19T06:16:51;13.32;;;7.22;;
19621;SDS011;9958;33.196;-97.114;2023-11-19T06:19:19;12.15;;;7.75;;
19621;SDS011;9958;33.196;-97.114;2023-11-19T06:21:48;13.63;;;7.55;;
19621;SDS011;9958;33.196;-97.114;2023-11-19T06:24:16;10.98;;;7.15;;
19621;SDS011;9958;33.196;-97.114;2023-11-19T06:26:46;12.23;;;7.60;;
19621;SDS011;9958;33.196;-97.114;2023-11-19T06:29:14;12.60;;;7.53;;
19621;SDS011;9958;33.196;-97.114;2023-11-19T06:31:45;10.88;;;7.00;;
19621;SDS011;9958;33.196;-97.114;2023-11-19T06:34:14;12.80;;;6.88;;
19621;SDS011;9958;33.196;-97.114;2023-11-19T06:36:42;12.95;;;8.18;;
19621;SDS011;9958;33.196;-97.114;2023-11-19T06:39:11;12.30;;;7.88;;
19621;SDS011;9958;33.196;-97.114;2023-11-19T06:41:43;11.38;;;8.60;;
19621;SDS011;9958;33.196;-97.114;2023-11-19T06:44:14;14.10;;;7.88;;
19621;SDS011;9958;33.196;-97.114;2023-11-19T06:46:43;15.43;;;8.52;;
19621;SDS011;9958;33.196;-97.114;2023-11-19T06:49:11;15.20;;;7.95;;
19621;SDS011;9958;33.196;-97.114;2023-11-19T06:51:41;10.63;;;7.53;;
19621;SDS011;9958;33.196;-97.114;2023-11-19T06:54:11;16.02;;;8.68;;
19621;SDS011;9958;33.196;-97.114;2023-11-19T06:56:40;13.32;;;7.93;;
19621;SDS011;9958;33.196;-97.114;2023-11-19T06:59:10;13.02;;;8.15;;
19621;SDS011;9958;33.196;-97.114;2023-11-19T07:01:38;12.48;;;8.20;;
19621;SDS011;9958;33.196;-97.114;2023-11-19T07:04:10;13.48;;;8.40;;
19621;SDS011;9958;33.196;-97.114;2023-11-19T07:06:38;14.40;;;8.35;;
19621;SDS011;9958;33.196;-97.114;2023-11-19T07:09:08;12.63;;;8.15;;
19621;SDS011;9958;33.196;-97.114;2023-11-19T07:11:37;12.15;;;8.00;;
19621;SDS011;9958;33.196;-97.114;2023-11-19T07:14:05;10.30;;;7.30;;
19621;SDS011;9958;33.196;-97.114;2023-11-19T07:16:36;13.88;;;7.35;;
19621;SDS011;9958;33.196;-97.114;2023-11-19T07:19:04;12.13;;;8.15;;
19621;SDS011;9958;33.196;-97.114;2023-11-19T07:21:33;11.38;;;6.85;;
19621;SDS011;9958;33.196;-97.114;2023-11-19T07:24:05;11.88;;;7.68;;
19621;SDS011;9958;33.196;-97.114;2023-11-19T07:26:34;18.00;;;8.45;;
19621;SDS011;9958;33.196;-97.114;2023-11-19T07:29:02;13.75;;;8.32;;
19621;SDS011;9958;33.196;-97.114;2023-11-19T07:31:33;12.80;;;8.15;;
19621;SDS011;9958;33.196;-97.114;2023-11-19T07:34:03;11.70;;;7.65;;
19621;SDS011;9958;33.196;-97.114;2023-11-19T07:36:32;14.75;;;7.97;;
19621;SDS011;9958;33.196;-97.114;2023-11-19T07:39:01;13.27;;;8.07;;
19621;SDS011;9958;33.196;-97.114;2023-11-19T07:41:30;13.45;;;8.13;;
19621;SDS011;9958;33.196;-97.114;2023-11-19T07:43:58;16.02;;;9.20;;
19621;SDS011;9958;33.196;-97.114;2023-11-19T07:46:27;14.10;;;7.28;;
19621;SDS011;9958;33.196;-97.114;2023-11-19T07:48:56;18.08;;;8.82;;
19621;SDS011;9958;33.196;-97.114;2023-11-19T07:51:26;14.25;;;7.50;;
19621;SDS011;9958;33.196;-97.114;2023-11-19T07:53:54;11.57;;;7.82;;
19621;SDS011;9958;33.196;-97.114;2023-11-19T07:56:22;11.38;;;8.38;;
19621;SDS011;9958;33.196;-97.114;2023-11-19T07:58:50;13.52;;;8.23;;
19621;SDS011;9958;33.196;-97.114;2023-11-19T08:01:19;14.57;;;8.27;;
19621;SDS011;9958;33.196;-97.114;2023-11-19T08:03:49;15.23;;;8.20;;
19621;SDS011;9958;33.196;-97.114;2023-11-19T08:06:17;14.23;;;9.23;;
19621;SDS011;9958;33.196;-97.114;2023-11-19T08:08:47;15.55;;;8.55;;
19621;SDS011;9958;33.196;-97.114;2023-11-19T08:11:15;11.85;;;7.97;;
19621;SDS011;9958;33.196;-97.114;2023-11-19T08:13:45;10.55;;;7.53;;
19621;SDS011;9958;33.196;-97.114;2023-11-19T08:16:13;12.65;;;7.93;;
19621;SDS011;9958;33.196;-97.114;2023-11-19T08:18:42;12.18;;;7.47;;
19621;SDS011;9958;33.196;-97.114;2023-11-19T08:21:10;13.43;;;7.15;;
19621;SDS011;9958;33.196;-97.114;2023-11-19T08:23:39;12.52;;;8.30;;
19621;SDS011;9958;33.196;-97.114;2023-11-19T08:26:09;13.85;;;8.48;;
19621;SDS011;9958;33.196;-97.114;2023-11-19T08:28:37;11.48;;;7.43;;
19621;SDS011;9958;33.196;-97.114;2023-11-19T08:31:05;14.70;;;8.30;;
19621;SDS011;9958;33.196;-97.114;2023-11-19T08:33:34;10.50;;;7.45;;
19621;SDS011;9958;33.196;-97.114;2023-11-19T08:36:02;13.82;;;7.95;;
19621;SDS011;9958;33.196;-97.114;2023-11-19T08:38:31;10.73;;;7.35;;
19621;SDS011;9958;33.196;-97.114;2023-11-19T08:41:00;10.00;;;7.10;;
19621;SDS011;9958;33.196;-97.114;2023-11-19T08:43:30;12.38;;;7.70;;
19621;SDS011;9958;33.196;-97.114;2023-11-19T08:45:58;15.27;;;7.60;;
19621;SDS011;9958;33.196;-97.114;2023-11-19T08:48:26;9.75;;;7.28;;
19621;SDS011;9958;33.196;-97.114;2023-11-19T08:50:55;11.00;;;7.63;;
19621;SDS011;9958;33.196;-97.114;2023-11-19T08:53:23;11.50;;;7.45;;
19621;SDS011;9958;33.196;-97.114;2023-11-19T08:55:51;13.45;;;7.32;;
19621;SDS011;9958;33.196;-97.114;2023-11-19T08:58:19;12.30;;;7.28;;
19621;SDS011;9958;33.196;-97.114;2023-11-19T09:00:50;12.40;;;7.25;;
19621;SDS011;9958;33.196;-97.114;2023-11-19T09:03:18;12.90;;;7.38;;
19621;SDS011;9958;33.196;-97.114;2023-11-19T09:05:47;11.88;;;7.70;;
19621;SDS011;9958;33.196;-97.114;2023-11-19T09:08:15;10.80;;;6.97;;
19621;SDS011;9958;33.196;-97.114;2023-11-19T09:10:43;10.68;;;7.13;;
19621;SDS011;9958;33.196;-97.114;2023-11-19T09:13:12;12.52;;;7.85;;
19621;SDS011;9958;33.196;-97.114;2023-11-19T09:15:40;12.52;;;7.43;;
19621;SDS011;9958;33.196;-97.114;2023-11-19T09:18:10;11.65;;;7.93;;
19621;SDS011;9958;33.196;-97.114;2023-11-19T09:20:39;13.23;;;7.22;;
19621;SDS011;9958;33.196;-97.114;2023-11-19T09:23:07;13.18;;;7.30;;
19621;SDS011;9958;33.196;-97.114;2023-11-19T09:25:35;12.95;;;6.80;;
19621;SDS011;9958;33.196;-97.114;2023-11-19T09:28:04;13.63;;;7.20;;
19621;SDS011;9958;33.196;-97.114;2023-11-19T09:30:34;12.32;;;6.53;;
19621;SDS011;9958;33.196;-97.114;2023-11-19T09:33:02;10.45;;;7.55;;
19621;SDS011;9958;33.196;-97.114;2023-11-19T09:35:32;10.48;;;6.35;;
19621;SDS011;9958;33.196;-97.114;2023-11-19T09:38:00;10.25;;;6.68;;
19621;SDS011;9958;33.196;-97.114;2023-11-19T09:40:30;11.43;;;7.10;;
19621;SDS011;9958;33.196;-97.114;2023-11-19T09:42:59;9.38;;;6.38;;
19621;SDS011;9958;33.196;-97.114;2023-11-19T09:45:28;12.27;;;6.65;;
19621;SDS011;9958;33.196;-97.114;2023-11-19T09:47:59;13.10;;;7.90;;
19621;SDS011;9958;33.196;-97.114;2023-11-19T09:50:29;11.60;;;7.32;;
19621;SDS011;9958;33.196;-97.114;2023-11-19T09:53:00;11.95;;;8.05;;
19621;SDS011;9958;33.196;-97.114;2023-11-19T09:55:28;10.70;;;7.50;;
19621;SDS011;9958;33.196;-97.114;2023-11-19T09:57:57;11.55;;;7.78;;
19621;SDS011;9958;33.196;-97.114;2023-11-19T10:00:27;10.73;;;7.40;;
19621;SDS011;9958;33.196;-97.114;2023-11-19T10:02:55;13.45;;;7.88;;
19621;SDS011;9958;33.196;-97.114;2023-11-19T10:05:24;11.68;;;7.57;;
19621;SDS011;9958;33.196;-97.114;2023-11-19T10:07:55;10.82;;;6.97;;
19621;SDS011;9958;33.196;-97.114;2023-11-19T10:10:23;10.07;;;7.65;;
19621;SDS011;9958;33.196;-97.114;2023-11-19T10:12:52;11.48;;;7.97;;
19621;SDS011;9958;33.196;-97.114;2023-11-19T10:15:21;13.63;;;8.05;;
19621;SDS011;9958;33.196;-97.114;2023-11-19T10:17:52;11.18;;;7.80;;
19621;SDS011;9958;33.196;-97.114;2023-11-19T10:20:22;13.52;;;7.93;;
19621;SDS011;9958;33.196;-97.114;2023-11-19T10:22:52;15.00;;;8.35;;
19621;SDS011;9958;33.196;-97.114;2023-11-19T10:25:23;12.25;;;8.13;;
19621;SDS011;9958;33.196;-97.114;2023-11-19T10:27:52;12.18;;;7.22;;
19621;SDS011;9958;33.196;-97.114;2023-11-19T10:30:21;11.60;;;7.70;;
19621;SDS011;9958;33.196;-97.114;2023-11-19T10:33:04;12.45;;;7.72;;
19621;SDS011;9958;33.196;-97.114;2023-11-19T10:35:33;12.50;;;8.02;;
19621;SDS011;9958;33.196;-97.114;2023-11-19T10:38:12;12.48;;;7.68;;
19621;SDS011;9958;33.196;-97.114;2023-11-19T10:40:42;13.38;;;7.65;;
19621;SDS011;9958;33.196;-97.114;2023-11-19T10:43:10;12.55;;;7.32;;
19621;SDS011;9958;33.196;-97.114;2023-11-19T10:45:39;13.93;;;8.15;;
19621;SDS011;9958;33.196;-97.114;2023-11-19T10:48:08;13.30;;;7.95;;
19621;SDS011;9958;33.196;-97.114;2023-11-19T10:50:38;11.43;;;7.80;;
19621;SDS011;9958;33.196;-97.114;2023-11-19T10:53:09;11.27;;;7.93;;
19621;SDS011;9958;33.196;-97.114;2023-11-19T10:55:39;13.07;;;7.32;;
19621;SDS011;9958;33.196;-97.114;2023-11-19T10:58:07;13.73;;;7.75;;
19621;SDS011;9958;33.196;-97.114;2023-11-19T11:00:37;13.18;;;7.75;;
19621;SDS011;9958;33.196;-97.114;2023-11-19T11:03:11;10.05;;;7.53;;
19621;SDS011;9958;33.196;-97.114;2023-11-19T11:05:43;15.38;;;8.13;;
19621;SDS011;9958;33.196;-97.114;2023-11-19T11:08:16;13.90;;;8.45;;
19621;SDS011;9958;33.196;-97.114;2023-11-19T11:10:45;15.25;;;7.70;;
19621;SDS011;9958;33.196;-97.114;2023-11-19T11:13:19;15.50;;;8.07;;
19621;SDS011;9958;33.196;-97.114;2023-11-19T11:15:49;13.43;;;7.30;;
19621;SDS011;9958;33.196;-97.114;2023-11-19T11:18:20;12.18;;;7.75;;
19621;SDS011;9958;33.196;-97.114;2023-11-19T11:20:48;11.73;;;8.10;;
19621;SDS011;9958;33.196;-97.114;2023-11-19T11:23:27;9.82;;;7.32;;
19621;SDS011;9958;33.196;-97.114;2023-11-19T11:26:35;15.18;;;8.35;;
19621;SDS011;9958;33.196;-97.114;2023-11-19T11:29:20;10.93;;;7.88;;
19621;SDS011;9958;33.196;-97.114;2023-11-19T11:31:56;15.68;;;9.50;;
19621;SDS011;9958;33.196;-97.114;2023-11-19T11:34:43;14.70;;;8.35;;
19621;SDS011;9958;33.196;-97.114;2023-11-19T11:37:30;13.48;;;8.07;;
19621;SDS011;9958;33.196;-97.114;2023-11-19T11:40:03;10.63;;;7.53;;
19621;SDS011;9958;33.196;-97.114;2023-11-19T11:42:35;11.25;;;7.82;;
19621;SDS011;9958;33.196;-97.114;2023-11-19T11:45:05;14.82;;;7.40;;
19621;SDS011;9958;33.196;-97.114;2023-11-19T11:53:31;13.23;;;8.13;;
19621;SDS011;9958;33.196;-97.114;2023-11-19T11:56:04;12.00;;;7.57;;
19621;SDS011;9958;33.196;-97.114;2023-11-19T11:58:35;11.55;;;8.13;;
19621;SDS011;9958;33.196;-97.114;2023-11-19T12:01:07;12.32;;;7.55;;
19621;SDS011;9958;33.196;-97.114;2023-11-19T12:03:45;12.90;;;7.05;;
19621;SDS011;9958;33.196;-97.114;2023-11-19T12:06:14;14.52;;;7.97;;
19621;SDS011;9958;33.196;-97.114;2023-11-19T12:08:42;11.63;;;7.38;;
19621;SDS011;9958;33.196;-97.114;2023-11-19T12:11:12;10.93;;;7.53;;
19621;SDS011;9958;33.196;-97.114;2023-11-19T12:13:47;11.48;;;7.80;;
19621;SDS011;9958;33.196;-97.114;2023-11-19T12:16:28;12.88;;;8.52;;
19621;SDS011;9958;33.196;-97.114;2023-11-19T12:18:56;12.70;;;8.50;;
19621;SDS011;9958;33.196;-97.114;2023-11-19T12:21:31;10.88;;;7.25;;
19621;SDS011;9958;33.196;-97.114;2023-11-19T12:24:02;10.88;;;7.22;;
19621;SDS011;9958;33.196;-97.114;2023-11-19T12:26:38;12.80;;;8.07;;
19621;SDS011;9958;33.196;-97.114;2023-11-19T12:29:07;16.45;;;8.40;;
19621;SDS011;9958;33.196;-97.114;2023-11-19T12:31:35;14.35;;;8.10;;
19621;SDS011;9958;33.196;-97.114;2023-11-19T12:34:09;14.25;;;9.35;;
19621;SDS011;9958;33.196;-97.114;2023-11-19T12:36:41;13.10;;;7.88;;
19621;SDS011;9958;33.196;-97.114;2023-11-19T12:39:10;16.63;;;9.63;;
19621;SDS011;9958;33.196;-97.114;2023-11-19T12:41:52;13.93;;;9.52;;
19621;SDS011;9958;33.196;-97.114;2023-11-19T12:44:21;16.20;;;9.45;;
19621;SDS011;9958;33.196;-97.114;2023-11-19T12:47:00;13.73;;;8.13;;
19621;SDS011;9958;33.196;-97.114;2023-11-19T12:49:29;12.88;;;8.27;;
19621;SDS011;9958;33.196;-97.114;2023-11-19T12:51:57;12.90;;;8.40;;
19621;SDS011;9958;33.196;-97.114;2023-11-19T12:54:33;14.63;;;8.73;;
19621;SDS011;9958;33.196;-97.114;2023-11-19T12:57:04;15.65;;;9.50;;
19621;SDS011;9958;33.196;-97.114;2023-11-19T12:59:33;14.20;;;8.95;;
19621;SDS011;9958;33.196;-97.114;2023-11-19T13:02:02;14.48;;;9.27;;
19621;SDS011;9958;33.196;-97.114;2023-11-19T13:04:31;13.38;;;8.23;;
19621;SDS011;9958;33.196;-97.114;2023-11-19T13:07:00;14.15;;;8.63;;
19621;SDS011;9958;33.196;-97.114;2023-11-19T13:09:30;12.75;;;8.57;;
19621;SDS011;9958;33.196;-97.114;2023-11-19T13:11:58;14.82;;;9.02;;
19621;SDS011;9958;33.196;-97.114;2023-11-19T13:14:40;15.85;;;8.40;;
19621;SDS011;9958;33.196;-97.114;2023-11-19T13:17:13;14.40;;;8.98;;
19621;SDS011;9958;33.196;-97.114;2023-11-19T13:19:41;14.93;;;8.93;;
19621;SDS011;9958;33.196;-97.114;2023-11-19T13:22:10;14.85;;;8.50;;
19621;SDS011;9958;33.196;-97.114;2023-11-19T13:24:39;15.50;;;9.23;;
19621;SDS011;9958;33.196;-97.114;2023-11-19T13:27:08;14.85;;;8.77;;
19621;SDS011;9958;33.196;-97.114;2023-11-19T13:29:36;14.73;;;8.43;;
19621;SDS011;9958;33.196;-97.114;2023-11-19T13:32:06;13.27;;;8.23;;
19621;SDS011;9958;33.196;-97.114;2023-11-19T13:34:34;11.65;;;7.28;;
19621;SDS011;9958;33.196;-97.114;2023-11-19T13:37:03;11.85;;;7.88;;
19621;SDS011;9958;33.196;-97.114;2023-11-19T13:39:31;12.70;;;8.00;;
19621;SDS011;9958;33.196;-97.114;2023-11-19T13:41:59;13.27;;;7.97;;
19621;SDS011;9958;33.196;-97.114;2023-11-19T13:44:28;13.45;;;8.70;;
19621;SDS011;9958;33.196;-97.114;2023-11-19T13:46:57;13.45;;;7.85;;
19621;SDS011;9958;33.196;-97.114;2023-11-19T13:49:27;14.25;;;8.05;;
19621;SDS011;9958;33.196;-97.114;2023-11-19T13:51:55;15.50;;;8.13;;
19621;SDS011;9958;33.196;-97.114;2023-11-19T13:54:23;18.02;;;8.77;;
19621;SDS011;9958;33.196;-97.114;2023-11-19T13:56:54;10.77;;;7.78;;
19621;SDS011;9958;33.196;-97.114;2023-11-19T13:59:23;12.80;;;8.43;;
19621;SDS011;9958;33.196;-97.114;2023-11-19T14:01:51;13.57;;;8.88;;
19621;SDS011;9958;33.196;-97.114;2023-11-19T14:04:20;13.13;;;8.05;;
19621;SDS011;9958;33.196;-97.114;2023-11-19T14:06:50;13.43;;;8.45;;
19621;SDS011;9958;33.196;-97.114;2023-11-19T14:09:20;13.48;;;8.13;;
19621;SDS011;9958;33.196;-97.114;2023-11-19T14:11:49;12.75;;;7.97;;
19621;SDS011;9958;33.196;-97.114;2023-11-19T14:14:17;10.23;;;7.97;;
19621;SDS011;9958;33.196;-97.114;2023-11-19T14:16:46;14.50;;;7.97;;
19621;SDS011;9958;33.196;-97.114;2023-11-19T14:19:14;12.18;;;7.68;;
19621;SDS011;9958;33.196;-97.114;2023-11-19T14:21:42;12.50;;;7.80;;
19621;SDS011;9958;33.196;-97.114;2023-11-19T14:24:12;11.18;;;7.80;;
19621;SDS011;9958;33.196;-97.114;2023-11-19T14:26:40;14.80;;;8.10;;
19621;SDS011;9958;33.196;-97.114;2023-11-19T14:29:09;14.07;;;7.70;;
19621;SDS011;9958;33.196;-97.114;2023-11-19T14:31:37;13.98;;;8.75;;
19621;SDS011;9958;33.196;-97.114;2023-11-19T14:34:06;11.95;;;8.05;;
19621;SDS011;9958;33.196;-97.114;2023-11-19T14:36:34;13.85;;;8.70;;
19621;SDS011;9958;33.196;-97.114;2023-11-19T14:39:03;10.48;;;7.07;;
19621;SDS011;9958;33.196;-97.114;2023-11-19T14:41:34;11.35;;;7.78;;
19621;SDS011;9958;33.196;-97.114;2023-11-19T14:44:02;11.43;;;8.00;;
19621;SDS011;9958;33.196;-97.114;2023-11-19T14:46:31;11.68;;;7.90;;